Time;durP1;ratioP1;P1;durP2;ratioP2;P2;SDS_P1;SDS_P2;PMS_P1;PMS_P2;Temp;Humidity;BMP_temperature;BMP_pressure;BME280_temperature;BME280_humidity;BME280_pressure;Samples;Min_cycle;Max_cycle;Signal;HPM_P1;HPM_P2
2023/07/04 00:03:39;;;;;;;;;;;17.30;99.90;;;;;;8364627;22;19925;-79
2023/07/04 00:07:41;;;;;;;;;;;17.20;99.90;;;;;;8355909;28;20376;-79
2023/07/04 00:11:42;;;;;;;;;;;17.40;99.90;;;;;;8374230;23;19931;-79
2023/07/04 00:15:43;;;;;;;;;;;17.40;99.90;;;;;;8410060;28;20288;-79
2023/07/04 00:19:43;;;;;;;;;;;17.50;99.90;;;;;;8391935;28;19909;-79
2023/07/04 00:23:46;;;;;;;;;;;17.60;99.90;;;;;;8373137;28;19931;-81
2023/07/04 00:27:46;;;;;;;;;;;18.00;99.90;;;;;;8360089;28;19916;-79
2023/07/04 00:31:47;;;;;;;;;;;17.80;99.90;;;;;;8372926;28;19971;-79
2023/07/04 00:35:47;;;;;;;;;;;17.60;99.90;;;;;;8365101;28;19928;-79
2023/07/04 00:39:49;;;;;;;;;;;17.60;99.90;;;;;;8406093;28;19969;-80
2023/07/04 00:44:09;;;;;;;;;;;17.50;99.90;;;;;;8388004;28;19908;-79
2023/07/04 00:48:10;;;;;;;;;;;17.40;99.90;;;;;;8378752;28;19956;-79
2023/07/04 00:52:12;;;;;;;;;;;17.20;99.90;;;;;;8416521;22;19978;-80
2023/07/04 00:56:13;;;;;;;;;;;17.00;99.90;;;;;;8379635;28;19908;-81
2023/07/04 01:00:17;;;;;;;;;;;17.00;99.90;;;;;;8392370;28;19919;-81
2023/07/04 01:04:18;;;;;;;;;;;17.00;99.90;;;;;;8392167;28;19923;-79
2023/07/04 01:08:23;;;;;;;;;;;17.10;99.90;;;;;;8381193;28;19915;-81
2023/07/04 01:12:29;;;;;;;;;;;16.90;99.90;;;;;;8379257;28;19912;-79
2023/07/04 01:16:31;;;;;;;;;;;16.80;99.90;;;;;;8379112;28;19919;-80
2023/07/04 01:20:32;;;;;;;;;;;16.90;99.90;;;;;;8395884;28;19916;-79
2023/07/04 01:24:45;;;;;;;;;;;16.70;99.90;;;;;;8379209;28;20341;-81
2023/07/04 01:28:47;;;;;;;;;;;16.80;99.90;;;;;;8374283;28;19909;-80
2023/07/04 01:32:52;;;;;;;;;;;16.70;99.90;;;;;;8378435;28;19913;-79
2023/07/04 01:36:53;;;;;;;;;;;16.70;99.90;;;;;;8378468;28;19912;-79
2023/07/04 01:40:53;;;;;;;;;;;16.40;99.90;;;;;;8378778;28;20503;-81
2023/07/04 01:44:54;;;;;;;;;;;16.30;99.90;;;;;;8377952;28;19913;-80
2023/07/04 01:48:55;;;;;;;;;;;16.20;99.90;;;;;;8394409;28;19966;-80
2023/07/04 01:52:56;;;;;;;;;;;16.40;99.90;;;;;;8384442;28;20317;-81
2023/07/04 01:56:56;;;;;;;;;;;16.20;99.90;;;;;;8384636;28;19916;-80
2023/07/04 02:00:57;;;;;;;;;;;16.10;99.90;;;;;;8385389;28;19916;-79
2023/07/04 02:04:57;;;;;;;;;;;16.20;99.90;;;;;;8387504;28;19912;-80
2023/07/04 02:08:58;;;;;;;;;;;16.00;99.90;;;;;;8381579;28;19958;-81
2023/07/04 02:12:58;;;;;;;;;;;15.90;99.90;;;;;;8382969;28;19913;-80
2023/07/04 02:16:58;;;;;;;;;;;15.80;99.90;;;;;;8400796;28;20064;-79
2023/07/04 02:20:59;;;;;;;;;;;15.90;99.90;;;;;;8383172;28;20463;-79
2023/07/04 02:24:59;;;;;;;;;;;16.00;99.90;;;;;;8383005;28;19909;-78
2023/07/04 02:29:00;;;;;;;;;;;15.70;99.90;;;;;;8400417;28;19908;-81
2023/07/04 02:33:01;;;;;;;;;;;15.50;99.90;;;;;;8383938;28;19920;-81
2023/07/04 02:37:01;;;;;;;;;;;15.40;99.90;;;;;;8386784;28;19909;-82
2023/07/04 02:41:01;;;;;;;;;;;15.30;99.90;;;;;;8402992;28;19915;-81
2023/07/04 02:45:03;;;;;;;;;;;15.30;99.90;;;;;;8399856;28;19908;-80
2023/07/04 02:49:05;;;;;;;;;;;15.20;99.90;;;;;;8382831;28;20402;-82
2023/07/04 02:53:06;;;;;;;;;;;15.50;99.90;;;;;;8401187;28;19958;-81
2023/07/04 02:57:06;;;;;;;;;;;15.70;99.90;;;;;;8384021;28;20430;-81
2023/07/04 03:01:07;;;;;;;;;;;15.30;99.90;;;;;;8398798;28;19908;-82
2023/07/04 03:05:07;;;;;;;;;;;15.30;99.90;;;;;;8388718;28;19970;-81
2023/07/04 03:09:08;;;;;;;;;;;15.10;99.90;;;;;;8383182;28;20011;-82
2023/07/04 03:13:08;;;;;;;;;;;15.10;99.90;;;;;;8399804;28;19912;-81
2023/07/04 03:17:09;;;;;;;;;;;15.30;99.90;;;;;;8382538;28;19912;-81
2023/07/04 03:21:09;;;;;;;;;;;15.10;99.90;;;;;;8400217;28;19916;-82
2023/07/04 03:25:10;;;;;;;;;;;15.00;99.90;;;;;;8381852;28;19952;-81
2023/07/04 03:29:10;;;;;;;;;;;15.00;99.90;;;;;;8382775;28;19908;-82
2023/07/04 03:33:11;;;;;;;;;;;15.20;99.90;;;;;;8381050;28;19966;-80
2023/07/04 03:37:11;;;;;;;;;;;15.20;99.90;;;;;;8380009;28;19920;-81
2023/07/04 03:41:12;;;;;;;;;;;15.20;99.90;;;;;;8382281;28;19924;-81
2023/07/04 03:45:12;;;;;;;;;;;14.90;99.90;;;;;;8396090;28;19912;-79
2023/07/04 03:49:13;;;;;;;;;;;15.10;99.90;;;;;;8379293;28;19916;-81
2023/07/04 03:53:13;;;;;;;;;;;15.40;99.90;;;;;;8377963;28;20414;-81
2023/07/04 03:57:14;;;;;;;;;;;15.60;99.90;;;;;;8379576;28;19931;-80
2023/07/04 04:01:14;;;;;;;;;;;15.60;99.90;;;;;;8400233;28;19919;-80
2023/07/04 04:05:15;;;;;;;;;;;15.90;99.90;;;;;;8404303;28;20002;-81
2023/07/04 04:09:15;;;;;;;;;;;16.00;99.90;;;;;;8400013;28;19966;-81
2023/07/04 04:13:16;;;;;;;;;;;15.70;99.90;;;;;;8377622;28;19916;-80
2023/07/04 04:17:16;;;;;;;;;;;15.50;99.90;;;;;;8382844;28;19930;-81
2023/07/04 04:21:17;;;;;;;;;;;15.50;99.90;;;;;;8395777;28;19912;-80
2023/07/04 04:25:18;;;;;;;;;;;15.60;99.90;;;;;;8395348;28;19933;-82
2023/07/04 04:29:19;;;;;;;;;;;15.50;99.90;;;;;;8396902;28;19919;-82
2023/07/04 04:33:20;;;;;;;;;;;15.50;99.90;;;;;;8382452;28;19908;-82
2023/07/04 04:37:23;;;;;;;;;;;15.50;99.90;;;;;;8382016;28;19962;-81
2023/07/04 04:41:24;;;;;;;;;;;15.80;99.90;;;;;;8398440;28;19919;-80
2023/07/04 04:45:24;;;;;;;;;;;15.90;99.90;;;;;;8378670;28;19913;-80
2023/07/04 04:49:25;;;;;;;;;;;16.00;99.90;;;;;;8382684;28;19992;-81
2023/07/04 04:53:25;;;;;;;;;;;16.10;99.90;;;;;;8382537;28;20597;-80
2023/07/04 04:57:26;;;;;;;;;;;16.00;99.90;;;;;;8383762;28;19935;-80
2023/07/04 05:01:27;;;;;;;;;;;16.00;99.90;;;;;;8376128;28;20024;-80
2023/07/04 05:05:27;;;;;;;;;;;16.10;99.90;;;;;;8393679;28;19938;-79
2023/07/04 05:09:28;;;;;;;;;;;16.30;99.90;;;;;;8370726;28;19912;-80
2023/07/04 05:13:28;;;;;;;;;;;16.40;99.90;;;;;;8375502;28;20391;-81
2023/07/04 05:17:29;;;;;;;;;;;16.40;99.90;;;;;;8379954;28;19912;-78
2023/07/04 05:21:29;;;;;;;;;;;16.40;99.90;;;;;;8359380;28;19912;-77
2023/07/04 05:25:33;;;;;;;;;;;16.40;99.90;;;;;;8367821;28;20384;-79
2023/07/04 05:29:33;;;;;;;;;;;16.40;99.90;;;;;;8370996;28;19912;-80
2023/07/04 05:33:34;;;;;;;;;;;16.40;99.90;;;;;;8382846;28;19912;-79
2023/07/04 05:37:35;;;;;;;;;;;16.50;99.90;;;;;;8371091;28;19916;-78
2023/07/04 05:41:36;;;;;;;;;;;16.60;99.90;;;;;;8366356;28;20387;-79
2023/07/04 05:45:36;;;;;;;;;;;16.50;99.90;;;;;;8390141;28;19955;-79
2023/07/04 05:49:37;;;;;;;;;;;16.70;99.90;;;;;;8384025;28;20412;-79
2023/07/04 05:53:38;;;;;;;;;;;16.80;99.90;;;;;;8380003;28;19921;-79
2023/07/04 05:57:39;;;;;;;;;;;17.30;99.90;;;;;;8383854;28;19924;-80
2023/07/04 06:01:40;;;;;;;;;;;17.80;99.90;;;;;;8374219;28;19919;-80
2023/07/04 06:05:41;;;;;;;;;;;18.10;99.90;;;;;;8395158;28;19905;-81
2023/07/04 06:09:41;;;;;;;;;;;18.40;99.90;;;;;;8391788;28;20307;-81
2023/07/04 06:13:42;;;;;;;;;;;18.80;99.90;;;;;;8391952;28;19912;-77
2023/07/04 06:17:43;;;;;;;;;;;19.20;99.90;;;;;;8391160;28;19919;-76
2023/07/04 06:21:43;;;;;;;;;;;19.50;99.90;;;;;;8375489;28;19909;-77
2023/07/04 06:25:44;;;;;;;;;;;19.80;99.90;;;;;;8376300;28;19991;-76
2023/07/04 06:29:47;;;;;;;;;;;20.00;99.90;;;;;;8395658;28;19916;-76
2023/07/04 06:33:48;;;;;;;;;;;20.20;99.90;;;;;;8393794;28;20419;-76
2023/07/04 06:37:48;;;;;;;;;;;20.20;99.90;;;;;;8399173;28;19909;-76
2023/07/04 06:41:49;;;;;;;;;;;20.40;99.90;;;;;;8377672;28;19915;-76
2023/07/04 06:45:49;;;;;;;;;;;20.70;99.90;;;;;;8397800;28;19926;-76
2023/07/04 06:49:50;;;;;;;;;;;21.20;99.90;;;;;;8395265;28;19921;-76
2023/07/04 06:53:50;;;;;;;;;;;21.30;99.90;;;;;;8376400;28;19932;-77
2023/07/04 06:57:51;;;;;;;;;;;21.60;99.90;;;;;;8398646;28;19908;-77
2023/07/04 07:01:51;;;;;;;;;;;21.80;99.90;;;;;;8376258;28;20396;-77
2023/07/04 07:05:52;;;;;;;;;;;21.50;99.90;;;;;;8391915;28;19908;-77
2023/07/04 07:09:53;;;;;;;;;;;21.10;99.90;;;;;;8390395;28;19913;-77
2023/07/04 07:13:53;;;;;;;;;;;21.20;99.90;;;;;;8393333;28;19954;-78
2023/07/04 07:17:54;;;;;;;;;;;21.20;99.90;;;;;;8378861;28;19912;-76
2023/07/04 07:21:54;;;;;;;;;;;21.60;99.90;;;;;;8395807;28;19912;-78
2023/07/04 07:25:55;;;;;;;;;;;22.20;99.90;;;;;;8393005;28;20338;-77
2023/07/04 07:29:56;;;;;;;;;;;22.30;99.90;;;;;;8376850;28;20021;-78
2023/07/04 07:33:56;;;;;;;;;;;22.50;99.90;;;;;;8394358;28;19912;-78
2023/07/04 07:37:57;;;;;;;;;;;22.60;99.90;;;;;;8393979;28;20087;-78
2023/07/04 07:41:59;;;;;;;;;;;23.30;99.90;;;;;;8395265;28;20309;-78
2023/07/04 07:46:00;;;;;;;;;;;23.90;99.90;;;;;;8376366;28;19959;-78
2023/07/04 07:50:00;;;;;;;;;;;25.10;99.90;;;;;;8376568;28;20303;-78
2023/07/04 07:54:01;;;;;;;;;;;25.90;99.90;;;;;;8376228;28;19966;-78
2023/07/04 07:58:02;;;;;;;;;;;25.90;99.90;;;;;;8375277;28;19912;-78
2023/07/04 08:02:03;;;;;;;;;;;26.10;99.90;;;;;;8375832;28;19909;-78
2023/07/04 08:06:05;;;;;;;;;;;25.80;99.90;;;;;;8377576;28;21298;-78
2023/07/04 08:10:06;;;;;;;;;;;26.50;99.90;;;;;;8376183;28;19913;-78
2023/07/04 08:14:07;;;;;;;;;;;26.60;99.90;;;;;;8375130;28;19908;-78
2023/07/04 08:18:09;;;;;;;;;;;26.00;99.90;;;;;;8375921;28;20391;-78
2023/07/04 08:22:09;;;;;;;;;;;25.20;99.90;;;;;;8374933;28;19937;-77
2023/07/04 08:26:14;;;;;;;;;;;24.40;99.90;;;;;;8374165;28;19912;-78
2023/07/04 08:30:14;;;;;;;;;;;25.00;99.90;;;;;;8392073;28;19975;-78
2023/07/04 08:34:15;;;;;;;;;;;26.90;99.90;;;;;;8392038;28;19912;-79
2023/07/04 08:38:15;;;;;;;;;;;27.70;99.90;;;;;;8371530;28;19909;-77
2023/07/04 08:42:17;;;;;;;;;;;27.00;99.90;;;;;;8374379;28;19962;-78
2023/07/04 08:46:19;;;;;;;;;;;25.90;99.90;;;;;;8392422;28;19920;-77
2023/07/04 08:50:25;;;;;;;;;;;25.60;99.90;;;;;;8373536;28;19912;-78
2023/07/04 08:54:26;;;;;;;;;;;25.60;99.90;;;;;;8372296;28;19916;-78
2023/07/04 08:58:29;;;;;;;;;;;24.80;99.90;;;;;;8391973;28;19916;-78
2023/07/04 09:02:32;;;;;;;;;;;24.20;99.90;;;;;;8391367;28;19912;-77
2023/07/04 09:06:43;;;;;;;;;;;23.70;99.90;;;;;;8367833;28;19920;-77
2023/07/04 09:10:46;;;;;;;;;;;24.00;99.90;;;;;;8391781;28;20065;-77
2023/07/04 09:15:00;;;;;;;;;;;24.00;99.90;;;;;;8372885;28;20455;-78
2023/07/04 09:19:03;;;;;;;;;;;24.50;99.90;;;;;;8389954;28;19912;-77
2023/07/04 09:23:09;;;;;;;;;;;24.70;99.90;;;;;;8378447;28;20326;-78
2023/07/04 09:27:11;;;;;;;;;;;25.00;99.90;;;;;;8392801;28;19912;-78
2023/07/04 09:31:25;;;;;;;;;;;25.80;99.90;;;;;;8381334;28;19916;-77
2023/07/04 09:35:26;;;;;;;;;;;25.90;99.90;;;;;;8392991;28;19916;-76
2023/07/04 09:39:44;;;;;;;;;;;25.70;99.90;;;;;;8372876;28;20303;-77
2023/07/04 09:43:44;;;;;;;;;;;25.80;99.90;;;;;;8372518;28;20376;-77
2023/07/04 09:47:45;;;;;;;;;;;26.20;99.90;;;;;;8390706;28;19916;-78
2023/07/04 09:51:56;;;;;;;;;;;26.80;99.90;;;;;;8374822;28;19916;-78
2023/07/04 09:55:57;;;;;;;;;;;27.10;99.90;;;;;;8372417;28;19909;-77
2023/07/04 10:00:15;;;;;;;;;;;27.10;99.90;;;;;;8388115;28;20411;-77
2023/07/04 10:04:32;;;;;;;;;;;27.10;99.90;;;;;;8389428;28;19916;-78
2023/07/04 10:08:48;;;;;;;;;;;26.90;99.00;;;;;;8390383;28;20426;-78
2023/07/04 10:12:48;;;;;;;;;;;26.60;99.90;;;;;;8376073;28;19912;-77
2023/07/04 10:16:50;;;;;;;;;;;26.70;99.70;;;;;;8377982;28;19959;-77
2023/07/04 10:20:52;;;;;;;;;;;26.40;99.40;;;;;;8378369;28;20277;-78
2023/07/04 10:24:53;;;;;;;;;;;26.20;99.90;;;;;;8396257;28;19916;-78
2023/07/04 10:28:53;;;;;;;;;;;26.10;99.90;;;;;;8398465;28;19912;-77
2023/07/04 10:32:57;;;;;;;;;;;26.70;99.90;;;;;;8395661;28;19916;-78
2023/07/04 10:37:00;;;;;;;;;;;27.30;99.80;;;;;;8401385;28;19959;-78
2023/07/04 10:41:06;;;;;;;;;;;27.80;98.50;;;;;;8381696;28;20007;-78
2023/07/04 10:45:09;;;;;;;;;;;28.70;95.40;;;;;;8379285;28;19908;-77
2023/07/04 10:49:11;;;;;;;;;;;28.00;94.80;;;;;;8377310;28;19912;-77
2023/07/04 10:53:12;;;;;;;;;;;28.80;95.20;;;;;;8381692;28;20426;-78
2023/07/04 10:57:23;;;;;;;;;;;29.80;95.10;;;;;;8394995;28;19959;-78
2023/07/04 11:01:27;;;;;;;;;;;30.20;92.40;;;;;;8378627;28;19916;-79
2023/07/04 11:05:31;;;;;;;;;;;29.00;91.00;;;;;;8399449;28;19912;-77
2023/07/04 11:09:33;;;;;;;;;;;29.20;95.90;;;;;;8416336;28;19931;-79
2023/07/04 11:13:34;;;;;;;;;;;30.20;91.80;;;;;;8399074;28;19974;-78
2023/07/04 11:17:36;;;;;;;;;;;30.20;90.70;;;;;;8380418;28;20364;-77
2023/07/04 11:21:52;;;;;;;;;;;30.40;90.40;;;;;;8380755;28;20003;-78
2023/07/04 11:26:08;;;;;;;;;;;30.80;90.50;;;;;;8402053;28;20388;-78
2023/07/04 11:30:28;;;;;;;;;;;31.20;84.00;;;;;;8385229;28;19916;-78
2023/07/04 11:34:46;;;;;;;;;;;31.20;90.30;;;;;;8381723;28;19962;-78
2023/07/04 11:38:50;;;;;;;;;;;31.50;76.10;;;;;;8396781;28;20003;-78
2023/07/04 11:42:53;;;;;;;;;;;31.30;82.50;;;;;;8381908;28;19993;-78
2023/07/04 11:47:01;;;;;;;;;;;30.10;87.80;;;;;;8399231;28;19924;-77
2023/07/04 11:51:06;;;;;;;;;;;30.70;81.00;;;;;;8384133;28;19923;-77
2023/07/04 11:55:09;;;;;;;;;;;32.30;79.30;;;;;;8393815;28;19923;-78
2023/07/04 11:59:20;;;;;;;;;;;33.20;80.50;;;;;;8382904;28;20007;-78
2023/07/04 12:03:20;;;;;;;;;;;33.60;68.60;;;;;;8380802;28;19912;-77
2023/07/04 12:07:28;;;;;;;;;;;33.90;82.10;;;;;;8404015;28;19912;-76
2023/07/04 12:11:42;;;;;;;;;;;33.70;72.60;;;;;;8402433;28;19916;-78
2023/07/04 12:15:49;;;;;;;;;;;33.50;75.00;;;;;;8372013;28;19916;-76
2023/07/04 12:19:53;;;;;;;;;;;34.00;67.30;;;;;;8378835;28;20311;-79
2023/07/04 12:23:54;;;;;;;;;;;33.50;68.50;;;;;;8385263;28;21176;-79
2023/07/04 12:28:01;;;;;;;;;;;32.20;77.70;;;;;;8367348;28;19921;-78
2023/07/04 12:32:07;;;;;;;;;;;30.90;72.70;;;;;;8388845;28;20338;-76
2023/07/04 12:36:09;;;;;;;;;;;31.40;72.00;;;;;;8374015;28;20003;-77
2023/07/04 12:40:18;;;;;;;;;;;32.50;73.30;;;;;;8393206;28;19912;-78
2023/07/04 12:44:19;;;;;;;;;;;32.10;70.10;;;;;;8392821;28;19924;-79
2023/07/04 12:48:20;;;;;;;;;;;32.40;70.60;;;;;;8379742;28;19916;-78
2023/07/04 12:52:27;;;;;;;;;;;32.30;73.30;;;;;;8394897;28;19966;-78
2023/07/04 12:56:29;;;;;;;;;;;33.90;68.10;;;;;;8377167;28;19920;-78
2023/07/04 13:00:31;;;;;;;;;;;34.30;64.30;;;;;;8385961;28;19931;-78
2023/07/04 13:04:32;;;;;;;;;;;33.60;67.30;;;;;;8395877;28;19920;-78
2023/07/04 13:08:40;;;;;;;;;;;35.00;62.00;;;;;;8383664;28;19912;-78
2023/07/04 13:12:40;;;;;;;;;;;33.00;63.40;;;;;;8400713;28;19916;-79
2023/07/04 13:16:41;;;;;;;;;;;31.60;71.80;;;;;;8376435;28;20388;-79
2023/07/04 13:20:53;;;;;;;;;;;33.80;66.30;;;;;;8374205;28;19912;-79
2023/07/04 13:24:53;;;;;;;;;;;34.10;65.60;;;;;;8384308;28;19966;-79
2023/07/04 13:28:55;;;;;;;;;;;31.60;65.80;;;;;;8391380;28;20379;-78
2023/07/04 13:32:58;;;;;;;;;;;31.60;68.30;;;;;;8374225;28;19928;-78
2023/07/04 13:37:05;;;;;;;;;;;32.90;65.70;;;;;;8370771;28;19923;-78
2023/07/04 13:41:06;;;;;;;;;;;32.20;74.40;;;;;;8374462;28;20343;-78
2023/07/04 13:45:07;;;;;;;;;;;31.60;71.10;;;;;;8393940;28;19916;-77
2023/07/04 13:49:08;;;;;;;;;;;29.20;73.30;;;;;;8400568;28;19955;-78
2023/07/04 13:53:08;;;;;;;;;;;28.50;80.90;;;;;;8398102;28;20350;-79
2023/07/04 13:57:09;;;;;;;;;;;31.00;71.50;;;;;;8380215;28;20404;-80
2023/07/04 14:01:09;;;;;;;;;;;32.30;74.80;;;;;;8380910;28;19978;-78
2023/07/04 14:05:10;;;;;;;;;;;35.30;59.70;;;;;;8374491;28;20443;-78
2023/07/04 14:09:10;;;;;;;;;;;35.30;59.30;;;;;;8385330;28;20360;-78
2023/07/04 14:13:11;;;;;;;;;;;32.50;67.30;;;;;;8396426;28;20326;-79
2023/07/04 14:17:11;;;;;;;;;;;31.80;68.00;;;;;;8378719;28;19913;-79
2023/07/04 14:21:13;;;;;;;;;;;30.10;72.20;;;;;;8384904;28;19912;-77
2023/07/04 14:25:14;;;;;;;;;;;30.00;74.40;;;;;;8398817;28;19955;-78
2023/07/04 14:29:14;;;;;;;;;;;29.60;72.40;;;;;;8385153;28;20342;-79
2023/07/04 14:33:15;;;;;;;;;;;29.80;74.30;;;;;;8395440;28;19975;-78
2023/07/04 14:37:15;;;;;;;;;;;32.90;63.40;;;;;;8381566;28;19920;-79
2023/07/04 14:41:16;;;;;;;;;;;34.80;63.60;;;;;;8404949;28;20459;-78
2023/07/04 14:45:16;;;;;;;;;;;34.90;62.40;;;;;;8378903;28;19918;-78
2023/07/04 14:49:17;;;;;;;;;;;33.40;63.00;;;;;;8397931;28;20062;-77
2023/07/04 14:53:17;;;;;;;;;;;32.00;70.10;;;;;;8396714;28;19967;-77
2023/07/04 14:57:18;;;;;;;;;;;30.80;68.50;;;;;;8379116;28;19962;-78
2023/07/04 15:01:19;;;;;;;;;;;31.80;69.20;;;;;;8400491;28;19909;-78
2023/07/04 15:05:20;;;;;;;;;;;29.80;77.20;;;;;;8395851;28;20195;-79
2023/07/04 15:09:21;;;;;;;;;;;32.40;70.80;;;;;;8401086;28;19916;-76
2023/07/04 15:13:21;;;;;;;;;;;33.00;62.70;;;;;;8404482;28;20210;-80
2023/07/04 15:17:22;;;;;;;;;;;33.10;63.20;;;;;;8384541;28;19917;-79
2023/07/04 15:21:22;;;;;;;;;;;36.80;61.30;;;;;;8378315;28;20015;-78
2023/07/04 15:25:23;;;;;;;;;;;37.90;54.90;;;;;;8387610;28;19916;-78
2023/07/04 15:29:23;;;;;;;;;;;35.90;59.00;;;;;;8400160;28;19908;-78
2023/07/04 15:33:24;;;;;;;;;;;33.20;58.80;;;;;;8398421;28;20296;-78
2023/07/04 15:37:26;;;;;;;;;;;32.20;66.70;;;;;;8401995;28;19916;-78
2023/07/04 15:41:27;;;;;;;;;;;31.40;66.80;;;;;;8403212;28;20307;-78
2023/07/04 15:45:30;;;;;;;;;;;30.20;69.80;;;;;;8373385;28;19915;-77
2023/07/04 15:49:30;;;;;;;;;;;29.10;71.30;;;;;;8375085;28;20007;-78
2023/07/04 15:53:31;;;;;;;;;;;27.90;76.30;;;;;;8392520;28;20291;-78
2023/07/04 15:57:31;;;;;;;;;;;26.90;77.10;;;;;;8393945;28;19948;-78
2023/07/04 16:01:32;;;;;;;;;;;26.40;82.60;;;;;;8392990;28;19909;-78
2023/07/04 16:05:32;;;;;;;;;;;26.30;87.70;;;;;;8393944;28;19908;-78
2023/07/04 16:09:33;;;;;;;;;;;26.30;82.00;;;;;;8373934;28;19990;-77
2023/07/04 16:13:33;;;;;;;;;;;26.70;85.80;;;;;;8390697;28;19917;-78
2023/07/04 16:17:34;;;;;;;;;;;27.40;82.60;;;;;;8373754;28;19909;-78
2023/07/04 16:21:35;;;;;;;;;;;27.60;79.30;;;;;;8386282;28;19918;-78
2023/07/04 16:25:35;;;;;;;;;;;27.80;80.70;;;;;;8381950;28;19913;-78
2023/07/04 16:29:36;;;;;;;;;;;27.70;78.00;;;;;;8385774;28;19995;-77
2023/07/04 16:33:36;;;;;;;;;;;27.10;77.70;;;;;;8375677;28;19959;-76
2023/07/04 16:37:37;;;;;;;;;;;26.70;84.50;;;;;;8373206;28;19996;-77
2023/07/04 16:41:37;;;;;;;;;;;26.50;82.00;;;;;;8383730;28;19958;-77
2023/07/04 16:45:38;;;;;;;;;;;26.50;82.70;;;;;;8371029;28;19985;-77
2023/07/04 16:49:38;;;;;;;;;;;26.20;91.40;;;;;;8388443;28;20054;-78
2023/07/04 16:53:39;;;;;;;;;;;26.20;83.70;;;;;;8386327;28;19984;-78
2023/07/04 16:57:39;;;;;;;;;;;25.40;83.30;;;;;;8388257;28;19912;-78
2023/07/04 17:01:40;;;;;;;;;;;24.90;85.60;;;;;;8389684;28;19915;-77
2023/07/04 18:07:15;;;;;;;;;;;22.30;99.90;;;;;;8304378;27;20470;-78
2023/07/04 18:11:21;;;;;;;1.67;1.30;;;23.40;99.90;;;;;;8338068;23;19926;-83
2023/07/04 18:15:25;;;;;;;1.67;1.20;;;23.00;99.90;;;;;;8291142;28;20402;-83
2023/07/04 18:19:25;;;;;;;2.33;1.20;;;22.80;99.90;;;;;;8281170;28;20029;-83
2023/07/04 18:23:26;;;;;;;2.75;1.40;;;22.50;99.90;;;;;;8265554;28;20060;-83
2023/07/04 18:27:27;;;;;;;1.10;1.00;;;22.30;99.90;;;;;;8263917;28;20026;-83
2023/07/04 18:31:28;;;;;;;1.45;1.20;;;22.10;99.90;;;;;;8277289;28;20052;-82
2023/07/04 18:35:29;;;;;;;2.97;1.50;;;22.40;99.90;;;;;;8283009;28;20026;-83
2023/07/04 18:39:30;;;;;;;1.88;1.45;;;22.40;99.90;;;;;;8265265;28;20500;-82
2023/07/04 18:43:30;;;;;;;2.13;1.92;;;21.90;99.90;;;;;;8280332;28;20058;-83
2023/07/04 18:47:31;;;;;;;4.22;2.10;;;21.60;99.90;;;;;;8267792;28;20050;-83
2023/07/04 18:51:33;;;;;;;6.53;1.63;;;21.70;99.90;;;;;;8288566;28;20441;-83
2023/07/04 18:55:35;;;;;;;1.40;1.20;;;22.10;99.90;;;;;;8264720;28;20412;-82
2023/07/04 18:59:35;;;;;;;2.42;1.48;;;22.00;99.90;;;;;;8264156;28;20054;-82
2023/07/04 19:03:36;;;;;;;10.77;2.28;;;21.60;99.90;;;;;;8260524;28;20434;-81
2023/07/04 19:07:39;;;;;;;1.90;1.20;;;21.90;99.90;;;;;;8243349;28;20045;-79
2023/07/04 19:11:41;;;;;;;1.23;1.10;;;21.10;99.90;;;;;;8250222;28;20568;-80
2023/07/04 19:15:41;;;;;;;1.55;1.20;;;20.00;99.90;;;;;;8260231;28;20079;-81
2023/07/04 19:19:44;;;;;;;1.52;1.00;;;19.60;99.90;;;;;;8260267;28;20027;-81
2023/07/04 19:23:44;;;;;;;1.85;1.60;;;19.00;99.90;;;;;;8279321;28;20038;-82
2023/07/04 19:27:45;;;;;;;2.97;1.80;;;18.40;99.90;;;;;;8265951;28;20026;-83
2023/07/04 19:31:50;;;;;;;3.63;1.40;;;17.90;99.90;;;;;;8252367;28;20026;-80
2023/07/04 19:35:51;;;;;;;4.35;1.63;;;17.50;99.90;;;;;;8265510;28;20105;-83
2023/07/04 19:39:52;;;;;;;2.30;1.13;;;17.70;99.90;;;;;;8240791;28;20387;-82
2023/07/04 19:43:52;;;;;;;3.30;1.40;;;17.60;99.90;;;;;;8273521;28;20026;-83
2023/07/04 19:47:53;;;;;;;3.42;1.42;;;17.20;99.90;;;;;;8265804;28;20411;-83
2023/07/04 19:51:53;;;;;;;2.60;1.50;;;17.10;99.90;;;;;;8253274;28;20029;-83
2023/07/04 19:56:03;;;;;;;4.28;1.45;;;16.80;99.90;;;;;;8265471;28;20044;-83
2023/07/04 20:00:04;;;;;;;1.60;1.30;;;16.30;99.90;;;;;;8282989;28;20027;-83
2023/07/04 20:04:05;;;;;;;3.22;2.00;;;16.20;99.90;;;;;;8262370;28;20055;-83
2023/07/04 20:08:05;;;;;;;12.75;2.30;;;16.20;99.90;;;;;;8292915;28;20780;-83
2023/07/04 20:12:06;;;;;;;7.85;2.63;;;16.20;99.90;;;;;;8282838;28;20060;-82
2023/07/04 20:16:22;;;;;;;16.73;2.65;;;16.00;99.90;;;;;;8261372;28;20031;-83
2023/07/04 20:20:23;;;;;;;6.78;1.80;;;16.00;99.90;;;;;;8264359;28;20032;-83
2023/07/04 20:24:23;;;;;;;2.72;1.85;;;16.00;99.90;;;;;;8244032;28;20026;-82
2023/07/04 20:28:24;;;;;;;3.42;1.65;;;15.60;99.90;;;;;;8251969;28;20121;-82
2023/07/04 20:32:25;;;;;;;6.18;2.10;;;15.50;99.90;;;;;;8245930;28;20030;-83
2023/07/04 20:36:25;;;;;;;4.55;1.63;;;15.40;99.90;;;;;;8263956;28;20076;-83
2023/07/04 20:40:27;;;;;;;5.50;2.08;;;15.30;99.90;;;;;;8264618;28;20472;-83
2023/07/04 20:44:27;;;;;;;3.45;1.67;;;15.10;99.90;;;;;;8264178;28;20026;-83
2023/07/04 20:48:29;;;;;;;4.50;2.13;;;15.00;99.90;;;;;;8246577;28;20023;-82
2023/07/04 20:52:31;;;;;;;5.32;2.13;;;15.10;99.90;;;;;;8247365;28;20048;-82
2023/07/04 20:56:31;;;;;;;7.05;2.38;;;15.00;99.90;;;;;;8263266;28;20628;-82
2023/07/04 21:00:32;;;;;;;7.28;2.58;;;15.00;99.90;;;;;;8261824;28;20026;-81
2023/07/04 21:04:33;;;;;;;3.35;2.17;;;15.30;99.90;;;;;;8262718;28;20038;-82
2023/07/04 21:08:34;;;;;;;5.32;2.50;;;15.60;99.90;;;;;;8263211;28;20025;-82
2023/07/04 21:12:36;;;;;;;5.00;2.22;;;15.80;99.90;;;;;;8245132;28;20697;-83
2023/07/04 21:16:36;;;;;;;3.38;2.10;;;15.70;99.90;;;;;;8245114;28;20034;-82
2023/07/04 21:20:38;;;;;;;8.80;3.30;;;15.50;99.90;;;;;;8245125;28;20031;-81
2023/07/04 21:24:39;;;;;;;7.78;3.30;;;16.00;99.90;;;;;;8262172;28;20031;-81
2023/07/04 21:28:40;;;;;;;4.22;3.20;;;15.70;99.90;;;;;;8261286;28;20069;-81
2023/07/04 21:32:41;;;;;;;6.15;2.80;;;15.40;99.90;;;;;;8246236;28;20023;-81
2023/07/04 21:36:41;;;;;;;6.93;3.60;;;15.60;99.90;;;;;;8259489;28;20062;-81
2023/07/04 21:40:42;;;;;;;5.22;2.63;;;15.50;99.90;;;;;;8260587;28;20402;-81
2023/07/04 21:44:42;;;;;;;6.80;3.38;;;15.30;99.90;;;;;;8239732;28;20069;-81
2023/07/04 21:48:43;;;;;;;6.90;3.25;;;15.20;99.90;;;;;;8244226;28;20034;-82
2023/07/04 21:52:44;;;;;;;5.80;3.20;;;15.00;99.90;;;;;;8260400;28;20513;-81
2023/07/04 21:56:44;;;;;;;5.15;3.13;;;15.00;99.90;;;;;;8243467;28;20027;-82
2023/07/04 22:00:46;;;;;;;7.10;3.45;;;15.20;99.90;;;;;;8259049;28;20062;-82
2023/07/04 22:04:46;;;;;;;3.85;3.25;;;15.10;99.90;;;;;;8258844;28;20037;-81
2023/07/04 22:08:47;;;;;;;3.55;2.50;;;15.00;99.90;;;;;;8260378;28;20026;-82
2023/07/04 22:12:48;;;;;;;4.05;2.80;;;14.80;99.90;;;;;;8258631;28;20030;-83
2023/07/04 22:16:48;;;;;;;6.10;2.88;;;14.60;99.90;;;;;;8243797;28;20515;-82
2023/07/04 22:20:49;;;;;;;5.10;2.55;;;14.50;99.90;;;;;;8243645;28;20033;-82
2023/07/04 22:24:51;;;;;;;4.43;3.08;;;14.50;99.90;;;;;;8259638;28;20037;-82
2023/07/04 22:28:51;;;;;;;6.40;2.92;;;14.30;99.90;;;;;;8247781;28;20211;-82
2023/07/04 22:32:52;;;;;;;6.43;2.80;;;14.60;99.90;;;;;;8260716;28;20080;-82
2023/07/04 22:36:52;;;;;;;7.65;3.10;;;14.70;99.90;;;;;;8244463;28;20026;-82
2023/07/04 22:40:53;;;;;;;4.40;2.78;;;14.70;99.90;;;;;;8263976;28;20014;-82
2023/07/04 22:44:53;;;;;;;4.68;3.33;;;14.80;99.90;;;;;;8247945;28;20026;-82
2023/07/04 22:48:55;;;;;;;5.68;3.08;;;15.00;99.90;;;;;;8267791;28;20098;-82
2023/07/04 22:52:55;;;;;;;6.25;2.58;;;15.00;99.90;;;;;;8250517;28;20018;-81
2023/07/04 22:56:56;;;;;;;4.75;2.80;;;15.00;99.90;;;;;;8266970;28;20638;-82
2023/07/04 23:00:56;;;;;;;6.43;2.85;;;15.30;99.90;;;;;;8266795;28;20022;-82
2023/07/04 23:04:57;;;;;;;4.03;2.92;;;15.70;99.90;;;;;;8250438;28;20023;-83
2023/07/04 23:08:57;;;;;;;4.50;3.10;;;15.90;99.90;;;;;;8251900;28;20487;-82
2023/07/04 23:12:58;;;;;;;8.15;2.90;;;15.80;99.90;;;;;;8268037;28;20041;-82
2023/07/04 23:16:58;;;;;;;5.35;3.20;;;15.70;99.90;;;;;;8251674;28;20025;-83
2023/07/04 23:20:59;;;;;;;6.28;2.78;;;15.70;99.90;;;;;;8251666;28;20032;-83
2023/07/04 23:25:00;;;;;;;5.30;2.72;;;15.80;99.90;;;;;;8250340;28;20030;-83
2023/07/04 23:29:00;;;;;;;4.25;3.17;;;15.80;99.90;;;;;;8269365;28;20023;-81
2023/07/04 23:33:01;;;;;;;4.13;3.00;;;15.60;99.90;;;;;;8251285;28;20023;-82
2023/07/04 23:37:01;;;;;;;8.30;3.50;;;15.40;99.90;;;;;;8266349;28;20026;-82
2023/07/04 23:41:02;;;;;;;3.67;3.15;;;15.60;99.90;;;;;;8267763;28;20027;-83
2023/07/04 23:45:03;;;;;;;9.95;3.70;;;15.20;99.90;;;;;;8267661;28;20030;-83
2023/07/04 23:49:03;;;;;;;7.20;3.90;;;14.80;99.90;;;;;;8250872;28;20076;-81